Terminal Aerodrome Forecast
Issued by NWS

Current Version | Previous Version | Graphics & Text | Print | Product List | Glossary On
Versions: 1 2 3 4 5 6 7 8 9 10 11 12 13 14 15 16 17 18 19 20 21 22 23 24 25
000
FTUS41 KPBZ 021259 AAA
TAFMGW
TAF AMD
KMGW 021259Z 0213/0312 VRB03KT P6SM VCSH BKN045
     FM021600 25005KT P6SM BKN040
     FM030900 00000KT 4SM BR SKC=

USA.gov is the U.S. government's official web portal to all federal, state and local government web resources and services.